createdAt,value
2023-05-19T00:02:13.544Z,100834.27
2023-05-19T00:05:18.678Z,100837.89
2023-05-19T00:08:24.785Z,100840.52
2023-05-19T00:11:28.561Z,100857.54
2023-05-19T00:14:31.641Z,100848.93
2023-05-19T00:17:34.591Z,100853.73
2023-05-19T00:20:38.196Z,100844.05
2023-05-19T00:23:41.301Z,100842.63
2023-05-19T00:26:44.136Z,100842.71
2023-05-19T00:29:46.808Z,100833.47
2023-05-19T00:32:49.621Z,100834.80
2023-05-19T00:35:52.543Z,100833.40
2023-05-19T00:38:55.213Z,100831.85
2023-05-19T00:41:57.879Z,100831.52
2023-05-19T00:45:00.640Z,100835.89
2023-05-19T00:48:03.383Z,100834.09
2023-05-19T00:51:06.809Z,100831.19
2023-05-19T00:54:09.867Z,100831.95
2023-05-19T00:57:14.553Z,100830.04
2023-05-19T01:00:17.473Z,100831.07
2023-05-19T01:03:20.762Z,100839.39
2023-05-19T01:06:23.557Z,100835.56
2023-05-19T01:09:26.672Z,100835.63
2023-05-19T01:12:29.830Z,100834.17
2023-05-19T01:15:42.255Z,100836.83
2023-05-19T01:18:56.481Z,100836.55
2023-05-19T01:22:28.413Z,100840.23
2023-05-19T01:25:43.549Z,100838.64
2023-05-19T01:29:29.335Z,100835.77
2023-05-19T01:32:34.678Z,100842.92
2023-05-19T01:35:39.738Z,100845.44
2023-05-19T01:38:44.090Z,100841.72
2023-05-19T01:41:47.393Z,100840.92
2023-05-19T01:44:51.456Z,100843.14
2023-05-19T01:47:57.665Z,100840.55
2023-05-19T01:51:00.852Z,100842.80
2023-05-19T01:54:03.724Z,100841.64
2023-05-19T01:57:25.016Z,100843.85
2023-05-19T02:00:31.321Z,100849.92
2023-05-19T02:04:16.422Z,100854.38
2023-05-19T02:07:47.718Z,100847.80
2023-05-19T02:11:03.052Z,100847.20
2023-05-19T02:14:38.181Z,100851.00
2023-05-19T02:17:47.988Z,100851.96
2023-05-19T02:20:50.925Z,100845.73
2023-05-19T02:23:53.576Z,100852.67
2023-05-19T02:26:56.333Z,100857.61
2023-05-19T02:29:58.965Z,100858.55
2023-05-19T02:33:01.581Z,100850.95
2023-05-19T02:36:04.948Z,100850.42
2023-05-19T02:39:07.687Z,100849.66
2023-05-19T02:42:10.987Z,100852.61
2023-05-19T02:45:14.559Z,100845.69
2023-05-19T02:48:17.310Z,100845.72
2023-05-19T02:51:20.059Z,100849.92
2023-05-19T02:54:22.772Z,100849.64
2023-05-19T02:57:26.787Z,100849.89
2023-05-19T03:00:29.385Z,100847.68
2023-05-19T03:03:33.067Z,100847.92
2023-05-19T03:06:36.480Z,100847.32
2023-05-19T03:09:39.857Z,100844.41
2023-05-19T03:12:42.465Z,100845.04
2023-05-19T03:15:45.186Z,100847.48
2023-05-19T03:18:48.030Z,100848.56
2023-05-19T03:21:50.958Z,100850.84
2023-05-19T03:24:54.421Z,100842.09
2023-05-19T03:27:57.190Z,100853.81
2023-05-19T03:31:00.051Z,100859.04
2023-05-19T03:34:03.635Z,100854.13
2023-05-19T03:37:06.334Z,100856.04
2023-05-19T03:40:09.564Z,100857.78
2023-05-19T03:43:12.268Z,100855.95
2023-05-19T03:46:15.064Z,100856.42
2023-05-19T03:49:17.725Z,100862.15
2023-05-19T03:52:20.444Z,100862.27
2023-05-19T03:55:23.392Z,100860.96
2023-05-19T03:58:27.117Z,100863.48
2023-05-19T04:01:29.771Z,100868.48
2023-05-19T04:04:32.799Z,100866.27
2023-05-19T04:07:36.129Z,100868.96
2023-05-19T04:10:38.893Z,100869.52
2023-05-19T04:13:41.553Z,100867.86
2023-05-19T04:16:44.280Z,100867.05
2023-05-19T04:19:47.093Z,100860.98
2023-05-19T04:22:49.764Z,100859.94
2023-05-19T04:25:52.669Z,100857.86
2023-05-19T04:28:56.838Z,100861.03
2023-05-19T04:32:01.039Z,100859.27
2023-05-19T04:35:06.505Z,100859.98
2023-05-19T04:38:10.216Z,100859.75
2023-05-19T04:41:13.427Z,100856.28
2023-05-19T04:44:18.482Z,100862.52
2023-05-19T04:47:21.766Z,100867.53
2023-05-19T04:50:24.852Z,100867.42
2023-05-19T04:53:29.428Z,100870.45
2023-05-19T04:56:32.051Z,100873.55
2023-05-19T04:59:34.811Z,100870.13
2023-05-19T05:02:37.835Z,100868.66
2023-05-19T05:05:40.819Z,100867.70
2023-05-19T05:08:44.265Z,100863.91
2023-05-19T05:11:47.339Z,100866.80
2023-05-19T05:14:50.543Z,100863.85
2023-05-19T05:17:53.836Z,100862.02
2023-05-19T05:20:57.511Z,100860.15
2023-05-19T05:24:00.709Z,100861.42
2023-05-19T05:27:04.081Z,100861.64
2023-05-19T05:30:07.723Z,100862.13
2023-05-19T05:33:10.767Z,100863.88
2023-05-19T05:36:14.344Z,100864.94
2023-05-19T05:39:17.016Z,100862.98
2023-05-19T05:42:20.463Z,100865.44
2023-05-19T05:45:23.533Z,100866.81
2023-05-19T05:48:26.935Z,100871.16
2023-05-19T05:51:29.978Z,100875.41
2023-05-19T05:54:32.907Z,100876.76
2023-05-19T05:57:36.741Z,100876.05
2023-05-19T06:00:39.414Z,100877.65
2023-05-19T06:03:45.186Z,100877.70
2023-05-19T06:06:48.032Z,100881.21
2023-05-19T06:09:51.084Z,100879.02
2023-05-19T06:12:53.767Z,100879.16
2023-05-19T06:15:56.319Z,100881.55
2023-05-19T06:18:59.394Z,100882.41
2023-05-19T06:22:02.054Z,100884.39
2023-05-19T06:25:05.961Z,100886.48
2023-05-19T06:28:08.843Z,100888.79
2023-05-19T06:31:11.645Z,100891.23
2023-05-19T06:34:17.805Z,100888.49
2023-05-19T06:37:23.011Z,100889.10
2023-05-19T06:40:25.844Z,100890.66
2023-05-19T06:43:29.105Z,100889.11
2023-05-19T06:46:31.822Z,100892.95
2023-05-19T06:49:34.451Z,100892.20
2023-05-19T06:52:37.604Z,100894.02
2023-05-19T06:55:50.785Z,100888.75
2023-05-19T06:59:00.846Z,100892.83
2023-05-19T07:02:04.830Z,100895.89
2023-05-19T07:05:08.354Z,100889.30
2023-05-19T07:08:11.298Z,100885.83
2023-05-19T07:11:14.421Z,100883.81
2023-05-19T07:14:17.239Z,100884.20
2023-05-19T07:17:19.838Z,100884.27
2023-05-19T07:20:22.549Z,100876.73
2023-05-19T07:23:25.262Z,100881.14
2023-05-19T07:26:28.322Z,100879.89
2023-05-19T07:29:31.416Z,100881.73
2023-05-19T07:32:34.227Z,100885.91
2023-05-19T07:35:36.989Z,100883.20
2023-05-19T07:38:39.959Z,100880.65
2023-05-19T07:41:42.865Z,100875.48
2023-05-19T07:44:45.966Z,100872.77
2023-05-19T07:47:48.758Z,100874.41
2023-05-19T07:50:52.646Z,100868.24
2023-05-19T07:53:55.465Z,100870.73
2023-05-19T07:56:58.136Z,100871.22
2023-05-19T08:00:00.807Z,100870.38
2023-05-19T08:03:03.872Z,100865.38
2023-05-19T08:06:06.645Z,100864.55
2023-05-19T08:09:09.816Z,100862.08
2023-05-19T08:12:12.545Z,100858.09
2023-05-19T08:15:16.615Z,100859.36
2023-05-19T08:18:20.404Z,100860.02
2023-05-19T08:21:23.193Z,100859.15
2023-05-19T08:24:26.761Z,100861.08
2023-05-19T08:27:30.326Z,100864.77
2023-05-19T08:30:33.234Z,100865.30
2023-05-19T08:33:36.163Z,100865.98
2023-05-19T08:36:39.078Z,100863.14
2023-05-19T08:39:41.740Z,100860.04
2023-05-19T08:42:48.175Z,100860.59
2023-05-19T08:45:54.130Z,100858.57
2023-05-19T08:49:02.112Z,100863.40
2023-05-19T08:52:25.470Z,100861.84
2023-05-19T08:55:34.429Z,100861.12
2023-05-19T08:58:41.430Z,100861.20
2023-05-19T09:01:46.140Z,100866.47
2023-05-19T09:04:49.451Z,100860.73
2023-05-19T09:07:52.207Z,100857.47
2023-05-19T09:10:55.110Z,100856.53
2023-05-19T09:13:57.790Z,100848.45
2023-05-19T09:17:01.397Z,100852.02
2023-05-19T09:20:11.699Z,100850.65
2023-05-19T09:23:16.386Z,100845.64
2023-05-19T09:26:20.920Z,100838.70
2023-05-19T09:29:24.416Z,100833.97
2023-05-19T09:32:27.877Z,100838.24
2023-05-19T09:35:30.724Z,100840.23
2023-05-19T09:38:35.046Z,100837.75
2023-05-19T09:41:37.755Z,100833.59
2023-05-19T09:44:41.616Z,100833.73
2023-05-19T09:47:44.409Z,100839.61
2023-05-19T09:50:49.504Z,100839.70
2023-05-19T09:53:53.332Z,100841.89
2023-05-19T09:57:01.098Z,100838.65
2023-05-19T10:00:12.050Z,100827.56
2023-05-19T10:03:16.821Z,100834.44
2023-05-19T10:06:21.803Z,100830.23
2023-05-19T10:09:26.111Z,100831.92
2023-05-19T10:12:29.181Z,100825.27
2023-05-19T10:15:34.472Z,100821.36
2023-05-19T10:18:40.341Z,100821.76
2023-05-19T10:21:43.284Z,100828.69
2023-05-19T10:24:46.044Z,100827.07
2023-05-19T10:27:55.360Z,100828.31
2023-05-19T10:31:01.793Z,100825.73
2023-05-19T10:34:19.652Z,100822.42
2023-05-19T10:37:41.879Z,100818.66
2023-05-19T10:40:58.883Z,100814.04
2023-05-19T10:44:21.659Z,100816.65
2023-05-19T10:47:28.178Z,100818.04
2023-05-19T10:50:37.838Z,100812.27
2023-05-19T10:53:46.950Z,100813.42
2023-05-19T10:56:49.614Z,100811.60
2023-05-19T10:59:52.388Z,100811.55
2023-05-19T11:03:15.941Z,100809.38
2023-05-19T11:06:29.123Z,100809.89
2023-05-19T11:09:39.922Z,100812.12
2023-05-19T11:12:46.057Z,100815.53
2023-05-19T11:15:50.118Z,100815.58
2023-05-19T11:18:54.996Z,100810.89
2023-05-19T11:22:08.900Z,100818.92
2023-05-19T11:25:11.588Z,100817.27
2023-05-19T11:28:19.922Z,100815.86
2023-05-19T11:31:23.227Z,100815.88
2023-05-19T11:34:26.196Z,100817.07
2023-05-19T11:37:33.071Z,100826.21
2023-05-19T11:40:36.450Z,100822.27
2023-05-19T11:43:39.422Z,100823.97
2023-05-19T11:46:42.156Z,100823.57
2023-05-19T11:49:45.961Z,100820.43
2023-05-19T11:52:49.053Z,100817.16
2023-05-19T11:55:51.966Z,100819.89
2023-05-19T11:58:55.164Z,100820.38
2023-05-19T12:01:58.648Z,100819.17
2023-05-19T12:05:02.269Z,100822.13
2023-05-19T12:08:05.464Z,100823.90
2023-05-19T12:11:08.719Z,100818.66
2023-05-19T12:14:12.485Z,100822.73
2023-05-19T12:17:17.536Z,100819.68
2023-05-19T12:20:20.481Z,100817.85
2023-05-19T12:23:24.787Z,100818.48
2023-05-19T12:26:27.841Z,100810.21
2023-05-19T12:29:31.842Z,100814.32
2023-05-19T12:32:37.793Z,100810.66
2023-05-19T12:35:42.709Z,100803.86
2023-05-19T12:38:46.082Z,100802.70
2023-05-19T12:41:48.742Z,100799.77
2023-05-19T12:44:52.706Z,100797.80
2023-05-19T12:47:56.237Z,100791.81
2023-05-19T12:50:59.299Z,100796.29
2023-05-19T12:54:08.183Z,100800.98
2023-05-19T12:57:11.128Z,100802.11
2023-05-19T13:00:22.863Z,100801.89
2023-05-19T13:03:25.865Z,100812.06
2023-05-19T13:06:28.928Z,100802.64
2023-05-19T13:09:35.349Z,100803.25
2023-05-19T13:12:38.013Z,100800.20
2023-05-19T13:15:42.860Z,100796.71
2023-05-19T13:18:45.595Z,100788.06
2023-05-19T13:21:48.880Z,100790.11
2023-05-19T13:24:53.432Z,100790.86
2023-05-19T13:27:57.008Z,100796.20
2023-05-19T13:30:59.694Z,100799.88
2023-05-19T13:34:02.917Z,100801.42
2023-05-19T13:37:06.644Z,100799.30
2023-05-19T13:40:11.195Z,100794.52
2023-05-19T13:43:14.010Z,100795.15
2023-05-19T13:46:16.697Z,100797.64
2023-05-19T13:49:19.410Z,100803.09
2023-05-19T13:52:22.179Z,100799.09
2023-05-19T13:55:26.507Z,100797.64
2023-05-19T13:58:29.884Z,100796.86
2023-05-19T14:01:33.102Z,100801.39
2023-05-19T14:04:39.845Z,100794.86
2023-05-19T14:07:42.739Z,100789.22
2023-05-19T14:10:48.647Z,100785.94
2023-05-19T14:13:52.922Z,100789.00
2023-05-19T14:16:56.291Z,100789.26
2023-05-19T14:20:00.443Z,100788.49
2023-05-19T14:23:03.144Z,100787.15
2023-05-19T14:26:05.937Z,100791.16
2023-05-19T14:29:08.892Z,100789.65
2023-05-19T14:32:11.637Z,100792.20
2023-05-19T14:35:15.759Z,100789.30
2023-05-19T14:38:18.606Z,100789.35
2023-05-19T14:41:22.116Z,100789.92
2023-05-19T14:44:24.911Z,100787.39
2023-05-19T14:47:27.626Z,100784.79
2023-05-19T14:50:30.617Z,100787.46
2023-05-19T14:53:33.490Z,100787.21
2023-05-19T14:56:36.204Z,100794.77
2023-05-19T14:59:39.576Z,100800.77
2023-05-19T15:02:42.483Z,100806.06
2023-05-19T15:05:45.588Z,100807.87
2023-05-19T15:08:48.266Z,100810.88
2023-05-19T15:11:51.192Z,100808.48
2023-05-19T15:14:53.834Z,100809.38
2023-05-19T15:17:56.534Z,100805.80
2023-05-19T15:20:59.210Z,100803.81
2023-05-19T15:24:02.000Z,100805.73
2023-05-19T15:27:05.171Z,100797.08
2023-05-19T15:30:08.497Z,100798.49
2023-05-19T15:33:12.339Z,100803.35
2023-05-19T15:36:16.780Z,100797.36
2023-05-19T15:39:19.755Z,100801.16
2023-05-19T15:42:22.425Z,100800.88
2023-05-19T15:45:25.079Z,100796.58
2023-05-19T15:48:29.184Z,100793.33
2023-05-19T15:51:32.216Z,100792.98
2023-05-19T15:54:34.873Z,100796.73
2023-05-19T15:57:37.549Z,100795.63
2023-05-19T16:00:40.114Z,100798.52
2023-05-19T16:03:43.960Z,100800.58
2023-05-19T16:06:46.877Z,100799.64
2023-05-19T16:09:50.361Z,100798.05
2023-05-19T16:12:53.042Z,100794.06
2023-05-19T16:15:56.142Z,100794.72
2023-05-19T16:18:59.030Z,100802.06
2023-05-19T16:22:01.748Z,100800.92
2023-05-19T16:25:05.225Z,100798.67
2023-05-19T16:28:08.097Z,100797.11
2023-05-19T16:31:10.911Z,100792.19
2023-05-19T16:34:14.556Z,100788.61
2023-05-19T16:37:17.214Z,100790.08
2023-05-19T16:40:20.180Z,100789.62
2023-05-19T16:43:22.853Z,100793.62
2023-05-19T16:46:25.557Z,100794.42
2023-05-19T16:49:28.495Z,100794.64
2023-05-19T16:52:31.357Z,100793.91
2023-05-19T16:55:34.224Z,100796.48
2023-05-19T16:58:36.823Z,100794.98
2023-05-19T17:01:39.570Z,100795.65
2023-05-19T17:04:42.558Z,100792.14
2023-05-19T17:07:45.193Z,100792.23
2023-05-19T17:10:48.096Z,100793.82
2023-05-19T17:13:50.735Z,100790.23
2023-05-19T17:16:53.561Z,100788.14
2023-05-19T17:19:56.909Z,100787.66
2023-05-19T17:22:59.541Z,100779.20
2023-05-19T17:26:02.607Z,100784.90
2023-05-19T17:29:06.025Z,100786.20
2023-05-19T17:32:08.954Z,100786.13
2023-05-19T17:35:15.236Z,100783.59
2023-05-19T17:38:17.925Z,100794.45
2023-05-19T17:41:21.274Z,100800.88
2023-05-19T17:44:24.044Z,100805.93
2023-05-19T17:47:26.811Z,100808.02
2023-05-19T17:50:29.402Z,100817.21
2023-05-19T17:53:32.720Z,100813.86
2023-05-19T17:56:39.783Z,100818.77
2023-05-19T17:59:42.615Z,100824.94
2023-05-19T18:02:45.675Z,100825.98
2023-05-19T18:05:49.647Z,100824.57
2023-05-19T18:08:56.949Z,100821.58
2023-05-19T18:12:02.434Z,100814.98
2023-05-19T18:15:06.071Z,100815.61
2023-05-19T18:18:10.793Z,100815.04
2023-05-19T18:21:17.853Z,100815.96
2023-05-19T18:24:20.680Z,100816.48
2023-05-19T18:27:23.283Z,100816.54
2023-05-19T18:30:25.949Z,100818.34
2023-05-19T18:33:30.118Z,100821.70
2023-05-19T18:36:35.557Z,100815.88
2023-05-19T18:39:38.312Z,100819.30
2023-05-19T18:42:41.070Z,100823.85
2023-05-19T18:45:44.002Z,100828.44
2023-05-19T18:48:47.024Z,100827.64
2023-05-19T18:51:50.220Z,100830.20
2023-05-19T18:54:53.167Z,100826.83
2023-05-19T18:57:55.976Z,100831.79
2023-05-19T19:00:58.872Z,100825.98
2023-05-19T19:04:02.369Z,100822.15
2023-05-19T19:07:05.832Z,100817.46
2023-05-19T19:10:09.568Z,100815.80
2023-05-19T19:13:12.349Z,100821.52
2023-05-19T19:16:14.961Z,100815.90
2023-05-19T19:19:17.810Z,100816.05
2023-05-19T19:22:20.871Z,100815.65
2023-05-19T19:25:23.764Z,100812.09
2023-05-19T19:28:27.191Z,100812.23
2023-05-19T19:31:30.132Z,100809.02
2023-05-19T19:34:33.749Z,100805.77
2023-05-19T19:37:36.647Z,100804.65
2023-05-19T19:40:39.393Z,100807.38
2023-05-19T19:43:42.141Z,100807.20
2023-05-19T19:46:44.916Z,100811.27
2023-05-19T19:49:49.430Z,100812.30
2023-05-19T19:52:52.213Z,100813.27
2023-05-19T19:55:58.853Z,100816.38
2023-05-19T19:59:01.726Z,100818.77
2023-05-19T20:02:04.639Z,100813.96
2023-05-19T20:05:08.013Z,100809.40
2023-05-19T20:08:10.794Z,100814.48
2023-05-19T20:11:13.621Z,100816.06
2023-05-19T20:14:18.971Z,100824.00
2023-05-19T20:17:22.019Z,100827.10
2023-05-19T20:20:24.892Z,100830.64
2023-05-19T20:23:27.863Z,100830.05
2023-05-19T20:26:31.553Z,100831.14
2023-05-19T20:29:34.208Z,100831.45
2023-05-19T20:32:36.898Z,100836.02
2023-05-19T20:35:39.588Z,100832.21
2023-05-19T20:38:42.344Z,100831.00
2023-05-19T20:41:45.009Z,100830.52
2023-05-19T20:44:47.745Z,100827.42
2023-05-19T20:47:50.951Z,100826.81
2023-05-19T20:50:54.611Z,100828.70
2023-05-19T20:53:57.274Z,100831.81
2023-05-19T20:56:59.971Z,100831.02
2023-05-19T21:00:03.273Z,100832.46
2023-05-19T21:03:06.250Z,100834.20
2023-05-19T21:06:09.169Z,100836.63
2023-05-19T21:09:12.182Z,100838.54
2023-05-19T21:12:16.402Z,100835.63
2023-05-19T21:15:19.290Z,100833.70
2023-05-19T21:18:21.977Z,100836.36
2023-05-19T21:21:24.866Z,100833.05
2023-05-19T21:24:28.559Z,100838.02
2023-05-19T21:27:33.011Z,100840.65
2023-05-19T21:30:35.843Z,100841.11
2023-05-19T21:33:38.674Z,100836.73
2023-05-19T21:36:42.484Z,100836.34
2023-05-19T21:39:45.246Z,100839.58
2023-05-19T21:42:47.936Z,100838.46
2023-05-19T21:45:50.815Z,100840.44
2023-05-19T21:48:53.464Z,100843.87
2023-05-19T21:51:56.214Z,100847.48
2023-05-19T21:54:58.917Z,100846.42
2023-05-19T21:58:02.593Z,100846.88
2023-05-19T22:01:05.657Z,100850.52
2023-05-19T22:04:09.875Z,100846.17
2023-05-19T22:07:12.718Z,100845.89
2023-05-19T22:10:15.375Z,100843.12
2023-05-19T22:13:19.063Z,100843.16
2023-05-19T22:16:22.205Z,100841.61
2023-05-19T22:19:25.007Z,100840.55
2023-05-19T22:22:27.805Z,100841.03
2023-05-19T22:25:30.848Z,100840.05
2023-05-19T22:28:33.460Z,100838.15
2023-05-19T22:31:36.497Z,100837.58
2023-05-19T22:34:39.487Z,100829.94
2023-05-19T22:37:42.351Z,100824.34
2023-05-19T22:40:45.193Z,100826.48
2023-05-19T22:43:47.883Z,100822.92
2023-05-19T22:46:50.759Z,100818.39
2023-05-19T22:49:54.821Z,100817.18
2023-05-19T22:52:58.236Z,100813.47
2023-05-19T22:56:01.073Z,100811.06
2023-05-19T22:59:03.925Z,100808.88
2023-05-19T23:02:07.651Z,100800.85
2023-05-19T23:05:10.610Z,100797.71
2023-05-19T23:08:13.288Z,100796.85
2023-05-19T23:11:16.076Z,100793.09
2023-05-19T23:14:18.822Z,100795.23
2023-05-19T23:17:21.421Z,100794.67
2023-05-19T23:20:23.965Z,100791.98
2023-05-19T23:23:27.568Z,100789.91
2023-05-19T23:26:30.894Z,100785.10
2023-05-19T23:29:33.666Z,100786.98
2023-05-19T23:32:36.443Z,100789.23
2023-05-19T23:35:39.815Z,100788.69
2023-05-19T23:38:42.489Z,100790.76
2023-05-19T23:41:45.254Z,100790.71
2023-05-19T23:44:48.132Z,100792.70
2023-05-19T23:47:51.111Z,100787.04
2023-05-19T23:50:53.716Z,100791.09
2023-05-19T23:53:56.360Z,100788.49
2023-05-19T23:56:59.514Z,100785.16
